Time;durP1;ratioP1;P1;durP2;ratioP2;P2;SDS_P1;SDS_P2;PMS_P1;PMS_P2;Temp;Humidity;BMP_temperature;BMP_pressure;BME280_temperature;BME280_humidity;BME280_pressure;Samples;Min_cycle;Max_cycle;Signal;HPM_P1;HPM_P2
2022/11/01 00:01:43;;;;;;;13.97;8.87;;;;;;;11.11;100.00;95820.84;5026092;28;24878;-70
2022/11/01 00:04:09;;;;;;;14.80;8.35;;;;;;;11.06;100.00;95815.13;5028594;28;25040;-70
2022/11/01 00:06:36;;;;;;;11.00;7.78;;;;;;;10.98;100.00;95817.41;5026135;28;24448;-70
2022/11/01 00:09:03;;;;;;;13.52;7.82;;;;;;;11.05;100.00;95806.53;5022910;28;24467;-70
2022/11/01 00:11:30;;;;;;;10.18;7.00;;;;;;;11.05;100.00;95809.13;5026601;28;24428;-70
2022/11/01 00:13:57;;;;;;;10.65;7.32;;;;;;;11.00;100.00;95811.16;5028264;28;24794;-70
2022/11/01 00:16:25;;;;;;;13.02;7.65;;;;;;;11.00;100.00;95813.75;5027021;28;24432;-70
2022/11/01 00:18:51;;;;;;;19.65;7.70;;;;;;;10.98;100.00;95817.41;5021839;28;24431;-70
2022/11/01 00:21:18;;;;;;;11.23;7.25;;;;;;;10.93;100.00;95811.66;5028083;28;24439;-70
2022/11/01 00:23:45;;;;;;;10.75;6.68;;;;;;;10.91;100.00;95816.94;5027485;28;24992;-70
2022/11/01 00:26:15;;;;;;;12.82;6.05;;;;;;;10.92;100.00;95816.00;5028368;28;24452;-70
2022/11/01 00:28:42;;;;;;;11.63;6.32;;;;;;;10.94;100.00;95818.50;5027678;28;24988;-69
2022/11/01 00:31:09;;;;;;;13.63;8.57;;;;;;;10.88;100.00;95820.56;5028607;28;24439;-69
2022/11/01 00:33:37;;;;;;;12.68;8.23;;;;;;;10.90;100.00;95826.50;5026413;28;24486;-69
2022/11/01 00:36:04;;;;;;;11.00;7.57;;;;;;;10.85;100.00;95820.75;5029486;28;24474;-70
2022/11/01 00:38:30;;;;;;;14.40;7.43;;;;;;;10.88;100.00;95817.97;5026182;28;24988;-70
2022/11/01 00:40:57;;;;;;;11.70;6.85;;;;;;;10.88;100.00;95815.38;5030199;28;24443;-69
2022/11/01 00:43:24;;;;;;;8.98;5.78;;;;;;;10.89;100.00;95816.19;5018062;28;24797;-70
2022/11/01 00:45:51;;;;;;;9.20;4.50;;;;;;;10.84;100.00;95823.44;5029997;28;25028;-70
2022/11/01 00:48:18;;;;;;;18.07;8.27;;;;;;;10.81;100.00;95821.88;5027036;28;24448;-70
2022/11/01 00:50:45;;;;;;;11.13;6.95;;;;;;;10.79;100.00;95818.56;5024445;28;24431;-69
2022/11/01 00:53:12;;;;;;;10.57;5.85;;;;;;;10.75;100.00;95822.25;5018211;28;24986;-70
2022/11/01 00:55:39;;;;;;;14.63;6.78;;;;;;;10.71;100.00;95828.53;5027454;28;24439;-69
2022/11/01 00:58:06;;;;;;;9.25;4.95;;;;;;;10.60;100.00;95824.03;5026162;28;24443;-69
2022/11/01 01:00:32;;;;;;;8.88;4.68;;;;;;;10.54;100.00;95821.84;5030199;28;24432;-70
2022/11/01 01:02:59;;;;;;;8.48;4.80;;;;;;;10.54;100.00;95823.59;5026893;28;24432;-68
2022/11/01 01:05:25;;;;;;;10.48;5.93;;;;;;;10.50;100.00;95827.31;5025526;28;24443;-70
2022/11/01 01:07:53;;;;;;;8.38;6.20;;;;;;;10.50;100.00;95819.53;5025648;28;24451;-69
2022/11/01 01:10:20;;;;;;;10.57;5.47;;;;;;;10.38;100.00;95821.97;5024185;28;24439;-69
2022/11/01 01:12:46;;;;;;;14.32;5.45;;;;;;;10.37;100.00;95814.25;5026715;28;24435;-69
2022/11/01 01:15:13;;;;;;;10.48;6.18;;;;;;;10.37;100.00;95833.22;5028849;28;24970;-69
2022/11/01 01:17:39;;;;;;;10.77;5.68;;;;;;;10.33;100.00;95826.56;5026854;28;25331;-69
2022/11/01 01:20:07;;;;;;;11.38;4.93;;;;;;;10.28;100.00;95827.78;5029629;28;24436;-69
2022/11/01 01:22:34;;;;;;;8.18;5.00;;;;;;;10.25;100.00;95817.56;5021715;28;24424;-68
2022/11/01 01:25:02;;;;;;;7.57;5.03;;;;;;;10.22;100.00;95825.53;5026106;28;24989;-69
2022/11/01 01:27:28;;;;;;;11.25;5.35;;;;;;;10.19;100.00;95821.34;5022678;28;25021;-70
2022/11/01 01:29:55;;;;;;;10.82;5.10;;;;;;;10.16;100.00;95821.56;5020618;28;24438;-70
2022/11/01 01:32:23;;;;;;;12.10;5.22;;;;;;;10.16;100.00;95819.81;5013269;28;24965;-69
2022/11/01 01:34:50;;;;;;;9.77;5.05;;;;;;;10.21;100.00;95822.09;5021830;28;25014;-70
2022/11/01 01:37:19;;;;;;;11.13;5.03;;;;;;;10.27;100.00;95814.00;5025561;28;24439;-70
2022/11/01 01:39:45;;;;;;;9.65;4.93;;;;;;;10.30;100.00;95808.63;5021417;28;24833;-69
2022/11/01 01:42:17;;;;;;;13.90;5.22;;;;;;;10.35;100.00;95819.53;5025250;28;24458;-68
2022/11/01 01:45:19;;;;;;;15.48;5.68;;;;;;;10.37;100.00;95824.63;5019316;28;24490;-70
2022/11/01 01:47:50;;;;;;;14.10;5.50;;;;;;;10.34;100.00;95829.97;5024236;28;24448;-70
2022/11/01 01:50:26;;;;;;;7.30;4.73;;;;;;;10.38;100.00;95816.78;5024280;28;25005;-70
2022/11/01 01:52:57;;;;;;;8.02;4.95;;;;;;;10.47;100.00;95823.13;5027166;28;24432;-70
2022/11/01 01:55:29;;;;;;;10.00;4.82;;;;;;;10.50;100.00;95828.13;5020840;28;24432;-70
2022/11/01 01:57:58;;;;;;;9.48;4.78;;;;;;;10.43;100.00;95828.59;5027356;28;24431;-70
2022/11/01 02:00:25;;;;;;;9.40;5.17;;;;;;;10.43;100.00;95831.19;5026270;28;24432;-70
2022/11/01 02:02:51;;;;;;;10.20;5.22;;;;;;;10.36;100.00;95825.56;5014258;28;24445;-70
2022/11/01 02:05:25;;;;;;;14.40;4.97;;;;;;;10.38;100.00;95821.09;5028970;28;24470;-70
2022/11/01 02:07:52;;;;;;;10.13;4.18;;;;;;;10.45;100.00;95814.63;5029014;28;25031;-70
2022/11/01 02:10:19;;;;;;;8.88;4.07;;;;;;;10.58;100.00;95819.88;5020217;28;25008;-70
2022/11/01 02:12:48;;;;;;;7.05;4.40;;;;;;;10.63;100.00;95843.72;5020943;28;24432;-70
2022/11/01 02:15:18;;;;;;;9.68;4.50;;;;;;;10.56;100.00;95837.28;5015975;28;24974;-70
2022/11/01 02:18:06;;;;;;;8.15;4.30;;;;;;;10.64;100.00;95828.13;5027668;28;24438;-70
2022/11/01 02:20:42;;;;;;;9.20;4.45;;;;;;;10.73;100.00;95823.28;5024941;28;24427;-70
2022/11/01 02:23:36;;;;;;;12.10;4.63;;;;;;;10.69;100.00;95827.00;5026964;28;24463;-69
2022/11/01 02:26:21;;;;;;;10.23;4.72;;;;;;;10.81;100.00;95827.03;5020901;28;24443;-69
2022/11/01 02:29:00;;;;;;;11.35;4.97;;;;;;;10.68;100.00;95815.81;5024015;28;25007;-69
2022/11/01 02:31:40;;;;;;;11.02;4.40;;;;;;;10.99;100.00;95804.31;5016871;28;24432;-69
2022/11/01 02:34:15;;;;;;;10.83;4.43;;;;;;;11.06;100.00;95789.22;5027502;28;24988;-70
2022/11/01 02:36:47;;;;;;;13.37;4.60;;;;;;;11.11;100.00;95772.44;5026757;28;24428;-70
2022/11/01 02:39:20;;;;;;;8.88;4.63;;;;;;;11.39;100.00;95773.25;5029418;28;24440;-70
2022/11/01 02:41:55;;;;;;;6.88;3.42;;;;;;;11.53;100.00;95782.69;5023189;28;24459;-70
2022/11/01 02:44:26;;;;;;;6.30;3.60;;;;;;;11.60;100.00;95804.69;5025194;28;24436;-70
2022/11/01 02:47:01;;;;;;;9.80;4.60;;;;;;;11.27;100.00;95810.31;5022861;28;24448;-70
2022/11/01 02:49:32;;;;;;;10.60;4.82;;;;;;;11.11;100.00;95808.72;5027606;28;24982;-70
2022/11/01 02:52:00;;;;;;;7.05;4.70;;;;;;;11.05;100.00;95827.28;5031693;28;25019;-71
2022/11/01 02:54:30;;;;;;;10.43;5.17;;;;;;;10.84;100.00;95819.09;5023351;28;24447;-70
2022/11/01 02:56:59;;;;;;;12.68;5.22;;;;;;;10.86;100.00;95813.78;5031572;28;24427;-70
2022/11/01 02:59:28;;;;;;;7.00;4.82;;;;;;;10.89;100.00;95806.66;5023924;28;24432;-70
2022/11/01 03:02:01;;;;;;;11.27;4.80;;;;;;;10.90;100.00;95789.34;5031938;28;24431;-70
2022/11/01 03:04:29;;;;;;;5.78;3.95;;;;;;;11.00;100.00;95792.19;5023092;28;25009;-70
2022/11/01 03:06:59;;;;;;;6.35;3.88;;;;;;;11.11;100.00;95819.09;5027932;28;24452;-70
2022/11/01 03:09:26;;;;;;;9.18;4.65;;;;;;;11.00;100.00;95821.53;5025072;28;24501;-70
2022/11/01 03:11:58;;;;;;;8.85;4.43;;;;;;;11.01;100.00;95810.25;5032092;28;24438;-70
2022/11/01 03:14:34;;;;;;;9.93;5.00;;;;;;;11.01;100.00;95824.94;5025244;28;24433;-70
2022/11/01 03:17:07;;;;;;;10.85;4.15;;;;;;;11.00;100.00;95826.72;5031294;28;24424;-69
2022/11/01 03:19:47;;;;;;;15.68;4.78;;;;;;;10.97;100.00;95826.91;5024283;28;24440;-70
2022/11/01 03:22:18;;;;;;;8.25;4.60;;;;;;;11.01;100.00;95833.59;5022149;28;24989;-70
2022/11/01 03:24:51;;;;;;;11.15;4.47;;;;;;;11.00;100.00;95836.25;5030558;28;24459;-70
2022/11/01 03:27:25;;;;;;;9.10;4.68;;;;;;;10.93;100.00;95840.97;5028808;28;24488;-70
2022/11/01 03:29:58;;;;;;;13.18;4.65;;;;;;;10.96;100.00;95848.56;5026434;28;24440;-70
2022/11/01 03:32:29;;;;;;;8.32;4.20;;;;;;;11.01;100.00;95854.31;5028135;28;24428;-70
2022/11/01 03:35:01;;;;;;;8.13;3.92;;;;;;;11.03;100.00;95857.63;5031706;28;24420;-70
2022/11/01 03:37:29;;;;;;;8.65;4.15;;;;;;;11.08;100.00;95849.56;5022609;28;24428;-69
2022/11/01 03:40:01;;;;;;;6.95;3.97;;;;;;;11.14;100.00;95850.00;5030948;28;24791;-70
2022/11/01 03:42:29;;;;;;;13.23;4.30;;;;;;;11.16;100.00;95852.50;5025902;28;24491;-70
2022/11/01 03:45:02;;;;;;;7.35;4.00;;;;;;;11.21;100.00;95858.22;5030446;28;25321;-69
2022/11/01 03:47:29;;;;;;;15.57;4.57;;;;;;;11.19;100.00;95861.84;5022980;28;24448;-70
2022/11/01 03:50:14;;;;;;;8.70;4.20;;;;;;;11.22;100.00;95867.66;5031256;28;24438;-70
2022/11/01 03:52:41;;;;;;;13.73;4.55;;;;;;;11.26;100.00;95873.47;5024867;28;24438;-70
2022/11/01 03:55:17;;;;;;;6.85;4.03;;;;;;;11.30;100.00;95865.41;5020861;28;24428;-70
2022/11/01 03:57:44;;;;;;;8.95;3.95;;;;;;;11.31;100.00;95867.09;5026385;28;24423;-70
2022/11/01 04:00:12;;;;;;;11.70;4.25;;;;;;;11.34;100.00;95864.28;5028977;28;24443;-70
2022/11/01 04:02:40;;;;;;;8.45;4.03;;;;;;;11.39;100.00;95874.38;5019704;28;24856;-70
2022/11/01 04:05:08;;;;;;;7.80;3.95;;;;;;;11.42;100.00;95866.41;5029313;28;24436;-70
2022/11/01 04:07:35;;;;;;;5.88;3.75;;;;;;;11.44;100.00;95876.66;5024449;28;24955;-70
2022/11/01 04:10:02;;;;;;;10.10;4.20;;;;;;;11.39;100.00;95893.34;5022931;28;24439;-70
2022/11/01 04:12:28;;;;;;;9.38;4.80;;;;;;;11.45;100.00;95904.25;5028814;28;24435;-70
2022/11/01 04:20:35;;;;;;;17.33;7.13;;;;;;;11.55;100.00;95907.91;5027737;28;24551;-70
2022/11/01 04:23:05;;;;;;;13.48;4.72;;;;;;;11.61;100.00;95905.78;5017945;28;24435;-70
2022/11/01 04:25:33;;;;;;;14.45;6.05;;;;;;;11.74;100.00;95899.78;5026347;28;24436;-70
2022/11/01 04:28:00;;;;;;;9.80;5.32;;;;;;;11.78;100.00;95888.25;5026363;28;24841;-70
2022/11/01 04:30:29;;;;;;;16.67;5.55;;;;;;;11.92;100.00;95888.22;5029388;28;24436;-71
2022/11/01 04:32:56;;;;;;;6.28;3.88;;;;;;;12.07;100.00;95913.16;5028150;28;24996;-70
2022/11/01 04:35:23;;;;;;;13.35;5.05;;;;;;;12.26;100.00;95928.34;5024961;28;25000;-69
2022/11/01 04:37:56;;;;;;;7.15;3.42;;;;;;;12.28;100.00;95926.47;5029139;28;24535;-69
2022/11/01 04:40:25;;;;;;;6.32;3.17;;;;;;;12.34;100.00;95928.66;5027546;28;24439;-70
2022/11/01 04:42:52;;;;;;;8.30;3.80;;;;;;;12.36;100.00;95928.56;5024360;28;25000;-70
2022/11/01 04:45:19;;;;;;;8.07;2.97;;;;;;;12.40;100.00;95935.22;5027268;28;24511;-69
2022/11/01 04:47:51;;;;;;;7.73;3.50;;;;;;;12.46;100.00;95934.81;5028946;28;25214;-70
2022/11/01 04:50:18;;;;;;;11.02;7.35;;;;;;;12.52;100.00;95928.34;5021520;28;24444;-70
2022/11/01 04:52:44;;;;;;;8.45;4.78;;;;;;;12.63;100.00;95935.41;5028433;28;24454;-70
2022/11/01 04:55:11;;;;;;;8.43;5.15;;;;;;;12.65;100.00;95955.19;5027948;28;24816;-70
2022/11/01 04:57:39;;;;;;;7.82;3.42;;;;;;;12.73;100.00;95965.03;5028484;28;24439;-70
2022/11/01 05:00:10;;;;;;;4.65;3.17;;;;;;;12.81;100.00;95970.53;5030016;28;24436;-70
2022/11/01 05:02:37;;;;;;;7.38;3.40;;;;;;;12.88;100.00;95965.75;5029612;28;24432;-70
2022/11/01 05:05:04;;;;;;;3.22;1.48;;;;;;;13.02;100.00;95971.66;5021420;28;24436;-69
2022/11/01 05:07:31;;;;;;;9.25;3.60;;;;;;;12.94;100.00;95992.19;5029678;28;25010;-71
2022/11/01 05:09:57;;;;;;;5.05;2.13;;;;;;;13.05;100.00;95991.41;5024497;28;24447;-70
2022/11/01 05:12:24;;;;;;;5.30;2.13;;;;;;;13.00;100.00;95993.50;5016992;28;24433;-71
2022/11/01 05:14:52;;;;;;;3.13;1.50;;;;;;;12.91;100.00;95996.75;5025115;28;24817;-70
2022/11/01 05:17:19;;;;;;;4.38;1.60;;;;;;;13.03;100.00;95983.72;5026744;28;24436;-70
2022/11/01 05:19:45;;;;;;;4.50;1.30;;;;;;;13.24;100.00;95973.66;5024825;28;24443;-69
2022/11/01 05:22:12;;;;;;;2.40;1.02;;;;;;;13.17;100.00;95946.38;5019573;28;24443;-70
2022/11/01 05:24:38;;;;;;;2.53;0.90;;;;;;;13.16;100.00;95933.47;5024390;28;24431;-70
2022/11/01 05:27:05;;;;;;;2.20;0.77;;;;;;;13.26;100.00;95950.13;5019484;28;24432;-69
2022/11/01 05:29:31;;;;;;;1.30;0.90;;;;;;;13.29;100.00;95950.72;5017988;28;24437;-69
2022/11/01 05:31:59;;;;;;;2.97;1.05;;;;;;;13.25;100.00;95951.06;5018226;28;24429;-70
2022/11/01 05:34:26;;;;;;;1.67;0.90;;;;;;;13.44;100.00;95956.63;5021192;28;24439;-70
2022/11/01 05:36:53;;;;;;;2.05;0.90;;;;;;;13.36;100.00;95961.53;5027165;28;24459;-70
2022/11/01 05:39:20;;;;;;;2.58;1.17;;;;;;;13.29;100.00;95971.53;5024138;28;24451;-70
2022/11/01 05:41:46;;;;;;;3.65;0.95;;;;;;;13.23;100.00;95958.09;5027312;28;24431;-70
2022/11/01 05:44:13;;;;;;;1.60;0.70;;;;;;;13.17;100.00;95964.56;5024671;28;24989;-70
2022/11/01 05:46:39;;;;;;;1.60;0.75;;;;;;;13.15;100.00;95973.41;5027093;28;24446;-70
2022/11/01 05:49:07;;;;;;;1.13;0.53;;;;;;;13.15;100.00;95983.81;5021152;28;24460;-70
2022/11/01 05:51:33;;;;;;;1.60;0.73;;;;;;;13.18;100.00;95988.81;5027798;28;24463;-70
2022/11/01 05:54:00;;;;;;;1.43;0.60;;;;;;;13.12;100.00;95987.44;5025088;28;24454;-70
2022/11/01 05:56:27;;;;;;;1.73;0.77;;;;;;;13.07;100.00;95994.75;5027741;28;24977;-70
2022/11/01 05:58:53;;;;;;;2.80;0.90;;;;;;;13.07;100.00;96005.97;5026242;28;24434;-71
2022/11/01 06:01:20;;;;;;;2.53;1.00;;;;;;;13.02;100.00;96012.44;5028042;28;24439;-71
2022/11/01 06:03:49;;;;;;;2.63;1.00;;;;;;;13.01;100.00;96008.16;5029013;28;24468;-70
2022/11/01 06:06:17;;;;;;;2.00;0.70;;;;;;;12.98;100.00;96006.63;5025278;28;24490;-70
2022/11/01 06:08:44;;;;;;;4.90;0.80;;;;;;;13.04;100.00;96000.97;5029008;28;24458;-70
2022/11/01 06:11:11;;;;;;;1.77;0.43;;;;;;;13.02;100.00;95999.44;5025878;28;24428;-70
2022/11/01 06:13:37;;;;;;;1.45;0.50;;;;;;;13.10;100.00;96002.34;5028590;28;24806;-71
2022/11/01 06:16:06;;;;;;;1.38;0.70;;;;;;;13.05;100.00;96009.59;5017821;28;24435;-70
2022/11/01 06:18:33;;;;;;;1.38;0.70;;;;;;;13.07;100.00;96002.56;5023552;28;24436;-70
2022/11/01 06:20:59;;;;;;;1.30;0.60;;;;;;;13.05;100.00;96014.81;5025938;28;24432;-71
2022/11/01 06:23:27;;;;;;;5.47;0.57;;;;;;;12.99;100.00;96013.47;5023821;28;25014;-70
2022/11/01 06:25:59;;;;;;;1.70;0.60;;;;;;;13.00;100.00;96015.13;5029695;28;24439;-70
2022/11/01 06:28:26;;;;;;;3.17;0.77;;;;;;;13.04;100.00;96028.75;5024578;28;24459;-70
2022/11/01 06:30:52;;;;;;;1.00;0.40;;;;;;;13.00;100.00;96022.94;5030719;28;24984;-70
2022/11/01 06:33:19;;;;;;;1.42;0.60;;;;;;;12.96;100.00;96029.28;5024092;28;24428;-70
2022/11/01 06:35:46;;;;;;;1.83;0.57;;;;;;;12.98;100.00;96037.81;5030679;28;24439;-70
2022/11/01 06:38:12;;;;;;;0.73;0.50;;;;;;;12.98;100.00;96048.22;5024727;28;24434;-69
2022/11/01 06:40:40;;;;;;;1.00;0.40;;;;;;;12.99;100.00;96041.25;5031309;28;25037;-70
2022/11/01 06:43:06;;;;;;;1.27;0.40;;;;;;;12.98;100.00;96040.41;5028004;28;24436;-70
2022/11/01 06:45:33;;;;;;;1.00;0.40;;;;;;;12.97;100.00;96040.50;5027882;28;24799;-70
2022/11/01 06:48:00;;;;;;;0.60;0.40;;;;;;;12.99;100.00;96039.47;5030381;28;24452;-70
2022/11/01 06:50:27;;;;;;;0.50;0.40;;;;;;;13.00;100.00;96046.34;5031394;28;24443;-70
2022/11/01 06:52:56;;;;;;;1.02;0.50;;;;;;;12.99;100.00;96057.69;5028373;28;24442;-69
2022/11/01 06:55:22;;;;;;;1.48;0.50;;;;;;;13.00;100.00;96051.53;5031119;28;24855;-69
2022/11/01 06:57:55;;;;;;;1.20;0.30;;;;;;;13.02;100.00;96057.47;5032647;28;24435;-70
2022/11/01 07:00:22;;;;;;;1.33;0.40;;;;;;;13.05;100.00;96051.22;5031659;28;24505;-70
2022/11/01 07:02:48;;;;;;;1.55;0.60;;;;;;;13.02;100.00;96059.25;5024157;28;24431;-70
2022/11/01 07:05:15;;;;;;;1.30;0.70;;;;;;;13.00;100.00;96061.94;5031608;28;24996;-70
2022/11/01 07:07:41;;;;;;;1.85;0.77;;;;;;;12.97;100.00;96069.94;5032333;28;24456;-70
2022/11/01 07:10:09;;;;;;;0.95;0.52;;;;;;;12.92;100.00;96068.59;5031761;28;24431;-70
2022/11/01 07:12:35;;;;;;;3.72;2.72;;;;;;;12.95;100.00;96068.41;5022798;28;24814;-70
2022/11/01 07:15:04;;;;;;;2.35;1.25;;;;;;;12.95;100.00;96058.00;5021312;28;24443;-71
2022/11/01 07:17:30;;;;;;;1.95;1.00;;;;;;;12.93;100.00;96055.47;5022123;28;24429;-70
2022/11/01 07:19:57;;;;;;;4.80;3.88;;;;;;;12.95;100.00;96066.63;5028619;28;24440;-70
2022/11/01 07:22:23;;;;;;;6.93;4.90;;;;;;;12.93;100.00;96062.44;5023009;28;24989;-70
2022/11/01 07:24:50;;;;;;;5.40;3.40;;;;;;;12.92;100.00;96061.63;5024475;28;24518;-69
2022/11/01 07:27:16;;;;;;;5.97;3.90;;;;;;;12.92;100.00;96079.00;5029461;28;25007;-69
2022/11/01 07:29:43;;;;;;;11.27;3.65;;;;;;;12.90;100.00;96073.88;5025468;28;24815;-70
2022/11/01 07:32:11;;;;;;;8.98;4.28;;;;;;;12.96;100.00;96075.25;5031206;28;24447;-69
2022/11/01 07:34:37;;;;;;;6.10;2.30;;;;;;;12.99;100.00;96078.47;5022279;28;24440;-69
2022/11/01 07:37:04;;;;;;;15.73;8.88;;;;;;;13.03;100.00;96085.13;5026247;28;24439;-69
2022/11/01 07:39:30;;;;;;;3.72;2.63;;;;;;;13.03;100.00;96079.09;5027491;28;24498;-69
2022/11/01 07:41:58;;;;;;;1.40;1.02;;;;;;;13.08;100.00;96080.44;5022390;28;24477;-69
2022/11/01 07:44:24;;;;;;;1.33;0.70;;;;;;;13.26;100.00;96086.19;5019389;28;25032;-70
2022/11/01 07:46:51;;;;;;;1.50;0.70;;;;;;;13.31;100.00;96091.06;5023772;28;24989;-70
2022/11/01 07:49:19;;;;;;;0.87;0.50;;;;;;;13.26;100.00;96086.19;5026989;28;24479;-70
2022/11/01 07:51:45;;;;;;;0.82;0.50;;;;;;;13.35;100.00;96087.34;5027989;28;24436;-70
2022/11/01 07:54:12;;;;;;;1.13;0.50;;;;;;;13.35;100.00;96094.31;5026517;28;24446;-70
2022/11/01 07:56:38;;;;;;;1.05;0.70;;;;;;;13.35;100.00;96102.97;5029676;28;24518;-70
2022/11/01 07:59:05;;;;;;;2.03;0.77;;;;;;;13.36;100.00;96106.38;5030531;28;24440;-70
2022/11/01 08:01:32;;;;;;;1.50;0.50;;;;;;;13.43;100.00;96113.66;5026142;28;24430;-70
2022/11/01 08:03:58;;;;;;;1.35;0.65;;;;;;;13.43;100.00;96115.44;5026568;28;25000;-70
2022/11/01 08:06:26;;;;;;;1.30;0.60;;;;;;;13.51;100.00;96119.16;5028950;28;25202;-69
2022/11/01 08:08:53;;;;;;;1.83;0.60;;;;;;;13.57;100.00;96115.28;5027788;28;24455;-70
2022/11/01 08:11:19;;;;;;;1.90;0.65;;;;;;;13.57;100.00;96130.91;5022607;28;24435;-70
2022/11/01 08:13:46;;;;;;;0.70;0.40;;;;;;;13.58;100.00;96132.59;5027725;28;24440;-70
2022/11/01 08:16:16;;;;;;;1.50;0.60;;;;;;;13.63;100.00;96140.09;5021531;28;24479;-70
2022/11/01 08:18:43;;;;;;;0.32;0.30;;;;;;;13.66;100.00;96143.31;5023644;28;24443;-70
2022/11/01 08:21:11;;;;;;;0.88;0.50;;;;;;;13.66;100.00;96147.69;5024040;28;24448;-71
2022/11/01 08:23:39;;;;;;;0.80;0.50;;;;;;;13.64;100.00;96146.94;5028615;28;24463;-70
2022/11/01 08:26:05;;;;;;;1.50;0.60;;;;;;;13.67;100.00;96152.78;5027781;28;24985;-70
2022/11/01 08:28:32;;;;;;;0.68;0.35;;;;;;;13.67;100.00;96147.56;5029839;28;24459;-71
2022/11/01 08:30:58;;;;;;;0.57;0.30;;;;;;;13.73;100.00;96148.94;5029447;28;24440;-71
2022/11/01 08:33:25;;;;;;;0.95;0.38;;;;;;;13.72;100.00;96150.69;5028358;28;24439;-70
2022/11/01 08:35:51;;;;;;;1.10;0.70;;;;;;;13.70;100.00;96152.56;5029507;28;24446;-68
2022/11/01 08:38:18;;;;;;;1.40;0.60;;;;;;;13.70;100.00;96147.34;5026448;28;24440;-70
2022/11/01 08:40:46;;;;;;;3.90;0.83;;;;;;;13.73;100.00;96148.94;5029740;28;24451;-70
2022/11/01 08:43:13;;;;;;;2.10;0.68;;;;;;;13.72;100.00;96155.91;5028604;28;24432;-70
2022/11/01 08:45:40;;;;;;;1.95;0.80;;;;;;;13.73;100.00;96151.53;5029026;28;24454;-70
2022/11/01 08:48:06;;;;;;;2.08;0.60;;;;;;;13.73;100.00;96149.75;5029756;28;24455;-70
2022/11/01 08:50:34;;;;;;;1.23;0.73;;;;;;;13.76;100.00;96159.13;5026713;28;24436;-69
2022/11/01 08:53:04;;;;;;;1.10;0.40;;;;;;;13.74;100.00;96154.00;5029023;28;24451;-69
2022/11/01 08:55:31;;;;;;;1.10;0.40;;;;;;;13.72;100.00;96153.31;5028089;28;24866;-69
2022/11/01 08:58:00;;;;;;;0.93;0.55;;;;;;;13.79;100.00;96149.34;5029505;28;24432;-69
2022/11/01 09:00:26;;;;;;;0.80;0.43;;;;;;;13.89;100.00;96156.50;5028545;28;24440;-69
2022/11/01 09:02:53;;;;;;;1.00;0.50;;;;;;;13.94;100.00;96157.00;5028770;28;24436;-69
2022/11/01 09:05:20;;;;;;;2.40;0.50;;;;;;;13.94;100.00;96160.47;5028639;28;24516;-69
2022/11/01 09:07:47;;;;;;;1.60;0.45;;;;;;;13.98;100.00;96156.69;5028953;28;25020;-70
2022/11/01 09:10:15;;;;;;;0.60;0.30;;;;;;;14.36;100.00;96160.13;5029282;28;24458;-69
2022/11/01 09:12:42;;;;;;;1.27;0.43;;;;;;;14.59;100.00;96161.94;5025963;28;24530;-69
2022/11/01 09:15:10;;;;;;;0.85;0.45;;;;;;;14.86;100.00;96168.69;5024824;28;24436;-69
2022/11/01 09:17:37;;;;;;;0.77;0.45;;;;;;;14.90;100.00;96168.34;5020221;28;24448;-70
2022/11/01 09:20:04;;;;;;;0.40;0.40;;;;;;;14.93;100.00;96165.50;5025457;28;24977;-70
2022/11/01 09:22:30;;;;;;;0.75;0.40;;;;;;;15.11;100.00;96163.31;5022717;28;24443;-70
2022/11/01 09:24:57;;;;;;;0.98;0.32;;;;;;;15.38;100.00;96159.56;5024682;28;24439;-70
2022/11/01 09:27:24;;;;;;;0.73;0.43;;;;;;;15.45;100.00;96160.78;5026688;28;24436;-70
2022/11/01 09:29:50;;;;;;;0.68;0.40;;;;;;;15.62;100.00;96162.94;5026850;28;24466;-69
2022/11/01 09:32:18;;;;;;;1.57;0.50;;;;;;;15.68;100.00;96156.44;5024957;28;25046;-70
2022/11/01 09:34:47;;;;;;;1.33;0.60;;;;;;;15.55;100.00;96164.34;5026604;28;24446;-70
2022/11/01 09:37:14;;;;;;;1.77;0.40;;;;;;;15.47;100.00;96158.88;5026388;28;24523;-70
2022/11/01 09:39:41;;;;;;;1.40;0.70;;;;;;;15.44;100.00;96167.78;5024045;28;24428;-70
2022/11/01 09:42:15;;;;;;;1.90;0.70;;;;;;;15.34;100.00;96168.59;5021338;28;24447;-70
2022/11/01 09:44:45;;;;;;;1.45;0.73;;;;;;;15.34;100.00;96169.41;5024900;28;25414;-70
2022/11/01 09:47:15;;;;;;;2.13;0.87;;;;;;;15.30;100.00;96175.81;5022022;28;24474;-71
2022/11/01 09:49:46;;;;;;;1.40;0.50;;;;;;;15.30;100.00;96180.19;5026912;28;24475;-73
2022/11/01 09:52:18;;;;;;;0.93;0.50;;;;;;;15.27;100.00;96175.22;5024754;28;25009;-71
2022/11/01 09:54:45;;;;;;;2.03;0.80;;;;;;;15.28;100.00;96171.66;5028299;28;24436;-68
2022/11/01 09:57:19;;;;;;;2.28;0.80;;;;;;;15.19;100.00;96179.22;5023621;28;24448;-69
2022/11/01 09:59:57;;;;;;;1.98;0.88;;;;;;;15.29;100.00;96179.38;5027695;28;24930;-69
2022/11/01 10:02:47;;;;;;;1.90;0.70;;;;;;;15.28;100.00;96185.53;5028069;28;24432;-68
2022/11/01 10:05:26;;;;;;;2.45;0.70;;;;;;;15.26;100.00;96171.78;5011667;28;24447;-68
2022/11/01 10:08:02;;;;;;;1.48;0.73;;;;;;;15.29;100.00;96170.72;5023734;28;24567;-69
2022/11/01 10:10:37;;;;;;;1.30;0.50;;;;;;;15.39;100.00;96169.09;5024152;28;24455;-68
2022/11/01 10:13:15;;;;;;;3.38;0.77;;;;;;;15.42;100.00;96179.25;5025603;28;24489;-69
2022/11/01 10:15:54;;;;;;;2.05;0.88;;;;;;;15.40;100.00;96170.75;5025924;28;24612;-68
2022/11/01 10:18:26;;;;;;;2.33;0.90;;;;;;;15.42;100.00;96179.25;5025749;28;24447;-69
2022/11/01 10:20:56;;;;;;;5.45;1.00;;;;;;;15.41;100.00;96183.66;5023055;28;24489;-68
2022/11/01 10:23:33;;;;;;;4.30;0.77;;;;;;;15.47;100.00;96185.00;5028232;28;24444;-68
2022/11/01 10:25:59;;;;;;;1.95;0.88;;;;;;;15.56;100.00;96186.06;5028471;28;24467;-68
2022/11/01 10:28:32;;;;;;;3.95;1.00;;;;;;;15.57;100.00;96182.50;5028253;28;24444;-69
2022/11/01 10:31:02;;;;;;;1.33;0.60;;;;;;;15.57;100.00;96182.50;5027843;28;24432;-68
2022/11/01 10:33:33;;;;;;;2.92;0.63;;;;;;;15.54;100.00;96186.19;5025700;28;25004;-69
2022/11/01 10:36:04;;;;;;;1.98;0.80;;;;;;;15.45;100.00;96187.69;5027935;28;24440;-67
2022/11/01 10:38:39;;;;;;;1.50;0.60;;;;;;;15.42;100.00;96187.09;5023533;28;24497;-69
2022/11/01 10:41:16;;;;;;;2.00;0.73;;;;;;;15.40;100.00;96183.78;5027888;28;24989;-68
2022/11/01 10:43:46;;;;;;;1.80;0.73;;;;;;;15.45;100.00;96185.09;5027755;28;24442;-70
2022/11/01 10:46:17;;;;;;;3.37;0.90;;;;;;;15.47;100.00;96179.78;5026017;28;24447;-70
2022/11/01 10:48:48;;;;;;;1.98;1.00;;;;;;;15.56;100.00;96184.28;5027904;28;24865;-70
2022/11/01 10:51:19;;;;;;;2.22;0.77;;;;;;;15.66;100.00;96181.84;5028023;28;24448;-69
2022/11/01 10:53:48;;;;;;;4.85;1.02;;;;;;;15.76;100.00;96195.00;5027688;28;24435;-69
2022/11/01 10:56:21;;;;;;;5.73;1.00;;;;;;;15.86;100.00;96196.78;5027540;28;24443;-69
2022/11/01 10:58:52;;;;;;;4.30;0.77;;;;;;;15.87;100.00;96192.41;5025561;28;24533;-69
2022/11/01 11:01:22;;;;;;;3.77;1.07;;;;;;;15.89;100.00;96191.34;5027445;28;24436;-69
2022/11/01 11:03:50;;;;;;;2.85;1.00;;;;;;;15.99;100.00;96185.41;5024796;28;24438;-69
2022/11/01 11:06:19;;;;;;;2.47;0.95;;;;;;;16.08;100.00;96179.47;5021013;28;24466;-70
2022/11/01 11:08:51;;;;;;;1.85;0.80;;;;;;;16.04;100.00;96184.09;5025091;28;24502;-70
2022/11/01 11:11:22;;;;;;;3.33;1.20;;;;;;;16.01;100.00;96192.16;5028165;28;24443;-70
2022/11/01 11:13:54;;;;;;;3.13;1.10;;;;;;;15.96;100.00;96192.53;5029207;28;24447;-70
2022/11/01 11:16:30;;;;;;;2.13;0.82;;;;;;;16.00;100.00;96192.28;5028723;28;24443;-70
2022/11/01 11:19:01;;;;;;;3.80;1.17;;;;;;;15.99;100.00;96194.09;5025228;28;24436;-70
2022/11/01 11:21:33;;;;;;;2.65;1.10;;;;;;;15.94;100.00;96193.59;5027568;28;24444;-70
2022/11/01 11:24:01;;;;;;;3.10;1.33;;;;;;;15.88;100.00;96191.47;5029480;28;24525;-70
2022/11/01 11:26:37;;;;;;;2.65;1.02;;;;;;;15.89;100.00;96199.19;5019182;28;25003;-70
2022/11/01 11:29:05;;;;;;;2.05;0.95;;;;;;;15.85;100.00;96191.69;5026392;28;24456;-70
2022/11/01 11:31:33;;;;;;;3.42;1.10;;;;;;;15.73;99.84;96201.31;5020251;28;24440;-70
2022/11/01 11:34:13;;;;;;;3.80;1.25;;;;;;;15.68;100.00;96195.59;5023243;28;25033;-70
2022/11/01 11:36:43;;;;;;;3.20;1.13;;;;;;;15.66;100.00;96198.34;5027395;28;24471;-70
2022/11/01 11:39:24;;;;;;;5.65;1.23;;;;;;;15.67;100.00;96196.56;5028640;28;24436;-70